createdAt,value
2017-04-27T00:01:32.745Z,64.70
2017-04-27T00:04:01.713Z,64.10
2017-04-27T00:06:30.700Z,64.60
2017-04-27T00:08:59.710Z,64.60
2017-04-27T00:11:29.189Z,64.70
2017-04-27T00:13:58.176Z,64.90
2017-04-27T00:16:27.926Z,65.20
2017-04-27T00:18:56.897Z,65.10
2017-04-27T00:21:25.899Z,64.90
2017-04-27T00:23:55.160Z,64.90
2017-04-27T00:26:24.111Z,65.50
2017-04-27T00:28:53.103Z,64.80
2017-04-27T00:31:22.349Z,65.00
2017-04-27T00:33:51.285Z,64.60
2017-04-27T00:36:20.250Z,64.50
2017-04-27T00:38:50.421Z,64.60
2017-04-27T00:41:19.544Z,64.70
2017-04-27T00:43:49.550Z,64.50
2017-04-27T00:46:19.275Z,64.50
2017-04-27T00:48:49.296Z,64.70
2017-04-27T00:51:21.780Z,64.50
2017-04-27T00:53:59.965Z,65.30
2017-04-27T00:56:30.572Z,66.20
2017-04-27T00:58:59.615Z,67.90
2017-04-27T01:01:28.616Z,68.40
2017-04-27T01:03:57.573Z,67.90
2017-04-27T01:06:26.846Z,67.20
2017-04-27T01:08:55.939Z,67.20
2017-04-27T01:11:24.883Z,66.40
2017-04-27T01:13:53.815Z,66.30
2017-04-27T01:16:22.813Z,66.60
2017-04-27T01:18:52.091Z,66.70
2017-04-27T01:21:21.004Z,66.60
2017-04-27T01:23:49.976Z,66.80
2017-04-27T01:26:18.941Z,66.20
2017-04-27T01:28:47.908Z,66.40
2017-04-27T01:31:17.195Z,66.20
2017-04-27T01:33:46.879Z,66.30
2017-04-27T01:36:15.867Z,66.00
2017-04-27T01:38:44.858Z,65.50
2017-04-27T01:41:13.842Z,66.20
2017-04-27T01:43:43.166Z,66.00
2017-04-27T01:46:12.116Z,66.30
2017-04-27T01:48:41.056Z,66.20
2017-04-27T01:51:10.745Z,66.50
2017-04-27T01:53:39.684Z,66.90
2017-04-27T01:56:08.952Z,66.90
2017-04-27T01:58:37.892Z,66.90
2017-04-27T02:01:06.831Z,66.60
2017-04-27T02:03:35.879Z,67.10
2017-04-27T02:06:04.823Z,66.70
2017-04-27T02:08:34.855Z,66.70
2017-04-27T02:11:03.799Z,66.60
2017-04-27T02:13:32.734Z,66.00
2017-04-27T02:16:02.404Z,66.50
2017-04-27T02:18:31.366Z,67.00
2017-04-27T02:21:00.713Z,66.20
2017-04-27T02:23:30.384Z,65.90
2017-04-27T02:25:59.344Z,65.50
2017-04-27T02:28:28.276Z,66.20
2017-04-27T02:30:57.295Z,65.80
2017-04-27T02:33:27.415Z,66.70
2017-04-27T02:35:57.104Z,66.70
2017-04-27T02:38:26.038Z,66.90
2017-04-27T02:40:54.991Z,66.50
2017-04-27T02:43:23.920Z,67.70
2017-04-27T02:45:53.252Z,68.20
2017-04-27T02:48:22.185Z,68.50
2017-04-27T02:50:51.124Z,68.20
2017-04-27T02:53:20.059Z,68.70
2017-04-27T02:55:49.031Z,68.90
2017-04-27T02:58:18.270Z,69.10
2017-04-27T03:00:47.975Z,68.30
2017-04-27T03:03:17.694Z,67.90
2017-04-27T03:05:47.396Z,67.30
2017-04-27T03:08:17.083Z,68.50
2017-04-27T03:10:46.312Z,69.50
2017-04-27T03:13:15.256Z,69.60
2017-04-27T03:15:44.197Z,69.70
2017-04-27T03:18:13.147Z,69.40
2017-04-27T03:20:42.086Z,68.60
2017-04-27T03:23:11.335Z,68.40
2017-04-27T03:25:40.273Z,68.00
2017-04-27T03:28:09.220Z,67.70
2017-04-27T03:30:38.164Z,67.60
2017-04-27T03:33:07.107Z,67.40
2017-04-27T03:35:36.531Z,68.50
2017-04-27T03:38:05.462Z,68.00
2017-04-27T03:40:34.411Z,67.80
2017-04-27T03:43:04.084Z,68.10
2017-04-27T03:45:33.059Z,69.00
2017-04-27T03:48:02.314Z,68.80
2017-04-27T03:50:31.308Z,68.60
2017-04-27T03:53:00.303Z,69.60
2017-04-27T03:55:29.238Z,69.20
2017-04-27T03:57:58.195Z,69.20
2017-04-27T04:00:27.569Z,68.80
2017-04-27T04:02:56.527Z,68.60
2017-04-27T04:05:25.513Z,68.20
2017-04-27T04:07:54.444Z,68.00
2017-04-27T04:10:24.130Z,68.40
2017-04-27T04:12:53.437Z,68.20
2017-04-27T04:15:22.449Z,68.20
2017-04-27T04:17:52.137Z,68.20
2017-04-27T04:20:21.090Z,68.30
2017-04-27T04:22:50.023Z,68.20
2017-04-27T04:25:19.317Z,68.10
2017-04-27T04:27:48.311Z,68.20
2017-04-27T04:30:17.257Z,68.30
2017-04-27T04:32:46.220Z,68.10
2017-04-27T04:35:15.170Z,68.00
2017-04-27T04:37:44.468Z,68.10
2017-04-27T04:40:13.409Z,68.10
2017-04-27T04:42:42.355Z,68.30
2017-04-27T04:45:11.345Z,69.40
2017-04-27T04:47:40.285Z,69.90
2017-04-27T04:50:09.227Z,69.80
2017-04-27T04:52:38.179Z,69.40
2017-04-27T04:55:07.527Z,69.50
2017-04-27T04:57:36.494Z,69.00
2017-04-27T05:00:05.428Z,69.00
2017-04-27T05:02:34.413Z,68.90
2017-04-27T05:05:03.344Z,69.00
2017-04-27T05:07:32.599Z,69.30
2017-04-27T05:10:02.286Z,69.20
2017-04-27T05:12:31.241Z,68.60
2017-04-27T05:15:00.200Z,68.60
2017-04-27T05:17:29.875Z,68.50
2017-04-27T05:20:00.211Z,68.40
2017-04-27T05:22:29.187Z,68.00
2017-04-27T05:24:58.124Z,68.20
2017-04-27T05:27:27.123Z,67.70
2017-04-27T05:29:56.064Z,67.00
2017-04-27T05:32:25.094Z,67.70
2017-04-27T05:34:54.790Z,66.90
2017-04-27T05:37:24.783Z,66.50
2017-04-27T05:39:53.728Z,66.50
2017-04-27T05:42:22.675Z,66.00
2017-04-27T05:44:51.708Z,65.70
2017-04-27T05:47:20.667Z,65.00
2017-04-27T05:49:49.969Z,66.00
2017-04-27T05:52:19.666Z,64.60
2017-04-27T05:54:48.596Z,64.30
2017-04-27T05:57:17.556Z,63.50
2017-04-27T05:59:46.524Z,63.00
2017-04-27T06:02:15.860Z,62.40
2017-04-27T06:04:45.581Z,63.40
2017-04-27T06:07:14.517Z,63.60
2017-04-27T06:09:43.471Z,63.20
2017-04-27T06:12:12.553Z,62.90
2017-04-27T06:14:41.880Z,62.10
2017-04-27T06:17:10.816Z,62.10
2017-04-27T06:19:39.850Z,59.10
2017-04-27T06:22:08.779Z,59.10
2017-04-27T06:24:37.743Z,57.90
2017-04-27T06:27:07.188Z,57.40
2017-04-27T06:29:36.184Z,57.70
2017-04-27T06:32:05.127Z,57.70
2017-04-27T06:34:34.130Z,57.40
2017-04-27T06:37:03.116Z,58.50
2017-04-27T06:39:32.494Z,56.70
2017-04-27T06:42:01.483Z,57.50
2017-04-27T06:44:30.439Z,57.00
2017-04-27T06:46:59.398Z,56.60
2017-04-27T06:49:28.428Z,54.70
2017-04-27T06:51:57.947Z,54.80
2017-04-27T06:54:27.654Z,54.50
2017-04-27T06:56:57.435Z,53.80
2017-04-27T06:59:26.397Z,53.60
2017-04-27T07:01:55.355Z,52.40
2017-04-27T07:04:24.318Z,53.30
2017-04-27T07:06:53.303Z,53.20
2017-04-27T07:09:22.631Z,54.30
2017-04-27T07:11:52.352Z,53.20
2017-04-27T07:14:21.356Z,53.10
2017-04-27T07:16:50.309Z,53.40
2017-04-27T07:19:19.252Z,53.30
2017-04-27T07:24:48.288Z,51.70
2017-04-27T07:27:17.545Z,51.90
2017-04-27T07:29:46.529Z,53.00
2017-04-27T07:32:15.589Z,51.10
2017-04-27T07:34:44.616Z,48.80
2017-04-27T07:37:13.590Z,47.40
2017-04-27T07:39:43.653Z,46.70
2017-04-27T07:42:12.621Z,44.80
2017-04-27T07:44:41.630Z,44.80
2017-04-27T07:47:10.609Z,42.60
2017-04-27T07:49:39.739Z,42.10
2017-04-27T07:52:09.028Z,41.30
2017-04-27T07:54:38.097Z,41.30
2017-04-27T07:57:07.061Z,41.70
2017-04-27T07:59:36.049Z,41.20
2017-04-27T08:02:05.176Z,41.30
2017-04-27T08:04:34.450Z,40.60
2017-04-27T08:07:04.173Z,41.80
2017-04-27T08:09:33.160Z,41.70
2017-04-27T08:12:02.865Z,42.10
2017-04-27T08:14:32.713Z,42.40
2017-04-27T08:17:02.000Z,43.10
2017-04-27T08:19:32.149Z,41.90
2017-04-27T08:22:01.601Z,41.40
2017-04-27T08:24:32.198Z,42.20
2017-04-27T08:27:02.756Z,41.40
2017-04-27T08:29:32.468Z,42.20
2017-04-27T08:32:02.294Z,41.20
2017-04-27T08:34:32.055Z,41.10
2017-04-27T08:37:01.252Z,40.90
2017-04-27T08:39:30.783Z,38.90
2017-04-27T08:42:00.852Z,37.60
2017-04-27T08:44:30.542Z,37.80
2017-04-27T08:47:00.724Z,38.10
2017-04-27T08:49:31.025Z,38.20
2017-04-27T08:52:00.468Z,38.50
2017-04-27T08:54:30.007Z,37.80
2017-04-27T08:57:00.334Z,37.80
2017-04-27T08:59:30.829Z,37.20
2017-04-27T09:02:01.233Z,36.00
2017-04-27T09:04:31.844Z,35.40
2017-04-27T09:07:01.941Z,34.90
2017-04-27T09:09:31.778Z,33.50
2017-04-27T09:12:00.738Z,32.30
2017-04-27T09:14:29.692Z,32.60
2017-04-27T09:16:59.050Z,30.80
2017-04-27T09:19:28.324Z,28.80
2017-04-27T09:21:57.287Z,28.30
2017-04-27T09:24:26.274Z,29.20
2017-04-27T09:26:55.345Z,28.30
2017-04-27T09:29:25.119Z,28.10
2017-04-27T09:31:54.411Z,28.90
2017-04-27T09:34:23.404Z,28.90
2017-04-27T09:36:52.390Z,28.10
2017-04-27T09:39:21.474Z,29.70
2017-04-27T09:41:50.485Z,30.40
2017-04-27T09:44:19.943Z,29.00
2017-04-27T09:46:48.995Z,30.50
2017-04-27T09:49:18.213Z,29.40
2017-04-27T09:51:47.241Z,29.90
2017-04-27T09:54:16.222Z,29.80
2017-04-27T09:56:46.624Z,28.60
2017-04-27T09:59:15.640Z,28.50
2017-04-27T10:01:44.786Z,28.70
2017-04-27T10:04:13.860Z,28.30
2017-04-27T10:06:42.897Z,28.70
2017-04-27T10:09:12.221Z,29.00
2017-04-27T10:11:41.287Z,29.90
2017-04-27T10:14:10.287Z,35.40
2017-04-27T10:16:39.306Z,36.60
2017-04-27T10:19:08.958Z,38.70
2017-04-27T10:21:38.351Z,40.10
2017-04-27T10:24:07.413Z,41.10
2017-04-27T10:26:36.404Z,41.30
2017-04-27T10:29:05.951Z,41.70
2017-04-27T10:31:34.996Z,41.80
2017-04-27T10:34:04.537Z,42.50
2017-04-27T10:36:33.591Z,41.90
2017-04-27T10:39:04.255Z,42.70
2017-04-27T10:41:33.276Z,42.00
2017-04-27T10:44:02.382Z,40.90
2017-04-27T10:46:31.676Z,40.50
2017-04-27T10:49:00.693Z,40.90
2017-04-27T10:51:30.387Z,39.50
2017-04-27T10:53:59.402Z,39.30
2017-04-27T10:56:28.380Z,40.10
2017-04-27T10:58:58.523Z,40.00
2017-04-27T11:01:27.604Z,40.20
2017-04-27T11:03:57.289Z,40.60
2017-04-27T11:06:26.302Z,39.20
2017-04-27T11:08:56.066Z,39.70
2017-04-27T11:11:25.518Z,37.90
2017-04-27T11:13:55.269Z,36.40
2017-04-27T11:16:24.286Z,35.70
2017-04-27T11:18:53.849Z,34.20
2017-04-27T11:21:22.864Z,32.80
2017-04-27T11:23:52.217Z,33.80
2017-04-27T11:26:23.009Z,33.80
2017-04-27T11:28:52.344Z,34.50
2017-04-27T11:31:21.395Z,34.60
2017-04-27T11:33:50.391Z,34.00
2017-04-27T11:36:19.419Z,35.60
2017-04-27T11:38:49.160Z,36.00
2017-04-27T11:41:18.458Z,36.10
2017-04-27T11:43:47.436Z,34.30
2017-04-27T11:46:16.401Z,35.40
2017-04-27T11:48:47.164Z,35.70
2017-04-27T11:51:16.149Z,34.20
2017-04-27T11:53:45.535Z,34.00
2017-04-27T11:56:15.362Z,34.00
2017-04-27T11:58:45.366Z,34.60
2017-04-27T12:01:15.087Z,32.80
2017-04-27T12:03:44.060Z,32.90
2017-04-27T12:06:13.787Z,33.10
2017-04-27T12:08:42.809Z,32.90
2017-04-27T12:11:12.092Z,32.10
2017-04-27T12:13:41.062Z,32.00
2017-04-27T12:16:10.061Z,33.10
2017-04-27T12:18:39.867Z,32.80
2017-04-27T12:21:08.834Z,33.00
2017-04-27T12:23:38.169Z,34.80
2017-04-27T12:26:07.176Z,37.10
2017-04-27T12:28:36.156Z,42.00
2017-04-27T12:31:05.136Z,42.90
2017-04-27T12:33:34.862Z,42.40
2017-04-27T12:36:04.346Z,43.00
2017-04-27T12:38:34.164Z,40.80
2017-04-27T12:41:04.324Z,43.00
2017-04-27T12:43:33.372Z,41.10
2017-04-27T12:46:03.155Z,38.60
2017-04-27T12:48:32.136Z,41.00
2017-04-27T12:51:01.894Z,40.40
2017-04-27T12:53:31.196Z,40.00
2017-04-27T12:56:00.204Z,40.20
2017-04-27T12:58:29.256Z,40.10
2017-04-27T13:00:59.040Z,40.60
2017-04-27T13:03:28.043Z,40.50
2017-04-27T13:05:57.512Z,40.10
2017-04-27T13:08:26.513Z,39.00
2017-04-27T13:10:55.521Z,37.30
2017-04-27T13:13:24.493Z,37.00
2017-04-27T13:15:53.508Z,38.10
2017-04-27T13:18:22.983Z,36.40
2017-04-27T13:20:51.984Z,36.60
2017-04-27T13:23:20.987Z,36.70
2017-04-27T13:25:49.977Z,36.30
2017-04-27T13:28:19.007Z,34.60
2017-04-27T13:30:48.424Z,35.20
2017-04-27T13:33:18.137Z,34.80
2017-04-27T13:35:47.185Z,33.70
2017-04-27T13:38:16.280Z,34.10
2017-04-27T13:40:45.266Z,33.30
2017-04-27T13:43:14.569Z,33.40
2017-04-27T13:45:43.624Z,34.10
2017-04-27T13:48:12.626Z,34.50
2017-04-27T13:50:41.666Z,35.70
2017-04-27T13:53:10.640Z,36.60
2017-04-27T13:55:39.966Z,38.50
2017-04-27T13:58:09.684Z,37.50
2017-04-27T14:00:39.484Z,36.40
2017-04-27T14:03:08.472Z,37.60
2017-04-27T14:05:37.472Z,38.10
2017-04-27T14:08:07.598Z,36.80
2017-04-27T14:10:37.309Z,35.80
2017-04-27T14:13:06.295Z,35.10
2017-04-27T14:15:36.056Z,34.60
2017-04-27T14:18:05.033Z,34.00
2017-04-27T14:20:34.337Z,35.30
2017-04-27T14:23:03.363Z,37.00
2017-04-27T14:25:32.344Z,37.20
2017-04-27T14:28:01.300Z,37.90
2017-04-27T14:30:30.862Z,38.00
2017-04-27T14:33:00.184Z,37.30
2017-04-27T14:35:29.195Z,36.60
2017-04-27T14:37:58.160Z,35.70
2017-04-27T14:40:27.161Z,34.10
2017-04-27T14:42:56.943Z,33.80
2017-04-27T14:45:26.269Z,33.70
2017-04-27T14:47:55.996Z,33.60
2017-04-27T14:50:24.980Z,31.90
2017-04-27T14:52:53.995Z,32.90
2017-04-27T14:55:23.009Z,32.40
2017-04-27T14:57:52.357Z,33.70
2017-04-27T15:00:22.056Z,33.40
2017-04-27T15:02:52.059Z,34.40
2017-04-27T15:05:21.107Z,34.70
2017-04-27T15:07:50.068Z,33.40
2017-04-27T15:10:19.861Z,34.20
2017-04-27T15:12:49.330Z,33.80
2017-04-27T15:15:18.699Z,32.40
2017-04-27T15:17:47.698Z,31.90
2017-04-27T15:20:16.670Z,32.40
2017-04-27T15:22:45.679Z,32.50
2017-04-27T15:25:14.657Z,32.50
2017-04-27T15:27:43.956Z,33.30
2017-04-27T15:30:12.945Z,31.90
2017-04-27T15:32:41.961Z,33.30
2017-04-27T15:35:10.948Z,33.10
2017-04-27T15:37:39.934Z,33.40
2017-04-27T15:40:09.323Z,34.20
2017-04-27T15:42:38.372Z,34.40
2017-04-27T15:45:07.387Z,33.80
2017-04-27T15:47:37.164Z,34.60
2017-04-27T15:50:06.159Z,35.00
2017-04-27T15:52:35.527Z,34.60
2017-04-27T15:55:09.677Z,34.60
2017-04-27T15:57:38.993Z,34.40
2017-04-27T16:00:07.975Z,34.40
2017-04-27T16:02:36.966Z,35.10
2017-04-27T16:05:08.867Z,34.50
2017-04-27T16:07:37.922Z,34.40
2017-04-27T16:10:07.366Z,34.40
2017-04-27T16:12:36.361Z,34.60
2017-04-27T16:17:47.371Z,35.00
2017-04-27T16:20:16.760Z,35.10
2017-04-27T16:22:45.769Z,35.00
2017-04-27T16:25:14.798Z,35.40
2017-04-27T16:27:43.926Z,35.00
2017-04-27T16:30:12.924Z,34.80
2017-04-27T16:32:42.257Z,35.50
2017-04-27T16:35:11.268Z,35.40
2017-04-27T16:37:40.282Z,36.10
2017-04-27T16:40:09.274Z,35.70
2017-04-27T16:42:38.321Z,36.00
2017-04-27T16:45:07.809Z,36.10
2017-04-27T16:47:36.802Z,35.80
2017-04-27T16:50:05.892Z,36.70
2017-04-27T16:52:34.902Z,36.70
2017-04-27T16:55:03.965Z,36.80
2017-04-27T16:57:33.372Z,36.10
2017-04-27T17:00:02.408Z,36.30
2017-04-27T17:02:31.465Z,37.20
2017-04-27T17:05:00.487Z,37.50
2017-04-27T17:07:29.566Z,37.80
2017-04-27T17:09:58.956Z,37.20
2017-04-27T17:12:27.975Z,37.50
2017-04-27T17:14:56.986Z,37.30
2017-04-27T17:17:26.051Z,36.50
2017-04-27T17:19:55.057Z,36.50
2017-04-27T17:22:24.416Z,36.40
2017-04-27T17:24:53.435Z,36.00
2017-04-27T17:27:22.476Z,36.20
2017-04-27T17:29:51.516Z,35.80
2017-04-27T17:32:20.574Z,35.90
2017-04-27T17:34:56.290Z,36.60
2017-04-27T17:37:25.317Z,36.30
2017-04-27T17:39:54.377Z,36.30
2017-04-27T17:42:23.382Z,36.00
2017-04-27T17:44:52.436Z,36.60
2017-04-27T17:47:21.830Z,37.40
2017-04-27T17:49:51.010Z,36.60
2017-04-27T17:52:20.003Z,36.90
2017-04-27T17:54:48.995Z,36.60
2017-04-27T17:57:18.033Z,36.40
2017-04-27T17:59:47.397Z,36.70
2017-04-27T18:02:16.521Z,37.00
2017-04-27T18:04:45.586Z,36.90
2017-04-27T18:07:14.567Z,37.40
2017-04-27T18:09:43.642Z,37.50
2017-04-27T18:12:12.962Z,37.00
2017-04-27T18:14:41.987Z,37.60
2017-04-27T18:17:11.009Z,37.30
2017-04-27T18:19:40.058Z,37.30
2017-04-27T18:22:09.149Z,37.30
2017-04-27T18:24:38.207Z,37.50
2017-04-27T18:27:07.991Z,38.40
2017-04-27T18:29:37.586Z,37.90
2017-04-27T18:32:06.614Z,37.70
2017-04-27T18:37:11.622Z,38.20
2017-04-27T18:39:40.643Z,38.30
2017-04-27T18:42:09.727Z,38.50
2017-04-27T18:44:38.806Z,38.40
2017-04-27T18:47:08.241Z,38.20
2017-04-27T18:49:37.395Z,38.10
2017-04-27T18:52:06.505Z,38.40
2017-04-27T18:54:35.563Z,38.10
2017-04-27T18:57:04.781Z,38.20
2017-04-27T18:59:33.875Z,38.50
2017-04-27T19:02:02.886Z,38.70
2017-04-27T19:04:32.321Z,38.70
2017-04-27T19:07:01.397Z,39.00
2017-04-27T19:09:30.732Z,38.60
2017-04-27T19:11:59.797Z,39.10
2017-04-27T19:14:28.883Z,38.70
2017-04-27T19:16:57.906Z,39.20
2017-04-27T19:19:27.710Z,38.70
2017-04-27T19:21:57.164Z,38.80
2017-04-27T19:24:26.204Z,38.40
2017-04-27T19:26:55.993Z,38.20
2017-04-27T19:29:25.063Z,37.80
2017-04-27T19:31:54.132Z,37.80
2017-04-27T19:34:23.205Z,38.10
2017-04-27T19:36:53.072Z,38.10
2017-04-27T19:39:22.522Z,38.30
2017-04-27T19:41:51.604Z,38.80
2017-04-27T19:44:20.641Z,39.00
2017-04-27T19:46:49.685Z,38.20
2017-04-27T19:49:18.722Z,38.20
2017-04-27T19:51:47.836Z,38.40
2017-04-27T19:54:16.868Z,38.50
2017-04-27T19:56:47.001Z,38.20
2017-04-27T19:59:16.773Z,38.30
2017-04-27T20:01:45.812Z,38.60
2017-04-27T20:04:14.853Z,38.30
2017-04-27T20:06:43.914Z,38.80
2017-04-27T20:09:12.940Z,39.10
2017-04-27T20:11:41.969Z,38.80
2017-04-27T20:14:11.484Z,38.90
2017-04-27T20:16:40.503Z,38.90
2017-04-27T20:19:09.495Z,38.90
2017-04-27T20:21:38.571Z,38.90
2017-04-27T20:24:07.578Z,39.30
2017-04-27T20:26:36.677Z,39.10
2017-04-27T20:29:06.474Z,39.00
2017-04-27T20:31:35.865Z,39.20
2017-04-27T20:34:04.884Z,39.70
2017-04-27T20:36:33.877Z,40.00
2017-04-27T20:39:03.198Z,39.50
2017-04-27T20:41:32.716Z,39.90
2017-04-27T20:44:01.725Z,39.80
2017-04-27T20:46:31.606Z,39.50
2017-04-27T20:49:00.980Z,40.20
2017-04-27T20:51:30.084Z,39.70
2017-04-27T20:53:59.098Z,39.90
2017-04-27T20:56:28.082Z,39.70
2017-04-27T20:58:57.125Z,39.70
2017-04-27T21:01:26.149Z,40.00
2017-04-27T21:03:55.141Z,40.00
2017-04-27T21:06:24.431Z,39.80
2017-04-27T21:08:53.464Z,39.70
2017-04-27T21:11:22.475Z,39.70
2017-04-27T21:13:51.435Z,40.00
2017-04-27T21:16:20.405Z,39.80
2017-04-27T21:18:49.407Z,39.40
2017-04-27T21:21:18.467Z,39.60
2017-04-27T21:23:48.517Z,39.50
2017-04-27T21:26:17.462Z,39.90
2017-04-27T21:28:47.202Z,39.70
2017-04-27T21:31:16.177Z,39.80
2017-04-27T21:33:45.212Z,39.80
2017-04-27T21:36:14.676Z,40.10
2017-04-27T21:38:43.691Z,40.30
2017-04-27T21:41:13.324Z,39.80
2017-04-27T21:59:35.899Z,40.30
2017-04-27T22:02:05.052Z,40.60
2017-04-27T22:04:34.454Z,40.70
2017-04-27T22:07:03.701Z,40.90
2017-04-27T22:09:32.860Z,40.80
2017-04-27T22:12:02.858Z,40.80
2017-04-27T22:14:32.404Z,41.40
2017-04-27T22:17:04.081Z,42.00
2017-04-27T22:19:33.336Z,42.20
2017-04-27T22:22:04.819Z,41.80
2017-04-27T22:24:33.963Z,42.30
2017-04-27T22:27:03.323Z,41.80
2017-04-27T22:29:49.462Z,41.80
2017-04-27T22:32:19.449Z,42.60
2017-04-27T22:34:48.657Z,42.10
2017-04-27T22:37:18.591Z,42.50
2017-04-27T22:39:48.753Z,42.30
2017-04-27T22:42:17.931Z,42.60
2017-04-27T22:53:51.408Z,43.40
2017-04-27T22:56:20.827Z,42.90
2017-04-27T22:59:10.511Z,43.40
2017-04-27T23:01:54.923Z,43.70
2017-04-27T23:07:36.311Z,43.10
2017-04-27T23:12:48.090Z,43.40
2017-04-27T23:15:17.206Z,43.90
2017-04-27T23:17:47.073Z,44.10
2017-04-27T23:20:16.203Z,43.80
2017-04-27T23:22:45.476Z,44.00
2017-04-27T23:25:15.302Z,43.70
2017-04-27T23:28:16.567Z,44.00
